Time;durP1;ratioP1;P1;durP2;ratioP2;P2;SDS_P1;SDS_P2;PMS_P1;PMS_P2;Temp;Humidity;BMP_temperature;BMP_pressure;BME280_temperature;BME280_humidity;BME280_pressure;Samples;Min_cycle;Max_cycle;Signal;HPM_P1;HPM_P2
2023/12/03 00:01:50;;;;;;;47.40;21.20;;;;;;;-3.26;80.59;98161.25;106021;1254;96613;-69
2023/12/03 00:04:18;;;;;;;50.60;22.60;;;;;;;-3.25;80.59;98172.50;105593;1257;107088;-68
2023/12/03 00:06:46;;;;;;;49.30;21.50;;;;;;;-3.24;80.75;98179.75;105276;1260;97993;-68
2023/12/03 00:09:15;;;;;;;58.40;22.90;;;;;;;-3.23;80.86;98181.63;105530;1257;97813;-69
2023/12/03 00:11:44;;;;;;;51.20;23.40;;;;;;;-3.23;80.64;98184.92;105403;1257;109814;-69
2023/12/03 00:14:11;;;;;;;55.00;23.80;;;;;;;-3.23;80.69;98185.80;106071;1257;96671;-69
2023/12/03 00:16:39;;;;;;;59.00;25.20;;;;;;;-3.23;80.85;98191.87;106984;1254;107224;-68
2023/12/03 00:19:07;;;;;;;48.50;20.20;;;;;;;-3.22;80.66;98200.85;105069;1259;97322;-69
2023/12/03 00:21:35;;;;;;;59.80;24.80;;;;;;;-3.23;80.78;98206.96;105366;1257;97431;-69
2023/12/03 00:24:04;;;;;;;60.20;25.50;;;;;;;-3.24;80.95;98210.80;105797;1255;109497;-69
2023/12/03 00:26:32;;;;;;;58.00;24.00;;;;;;;-3.24;80.85;98213.05;105733;1256;96668;-68
2023/12/03 00:28:59;;;;;;;54.80;23.80;;;;;;;-3.24;80.66;98217.39;105485;1254;107334;-69
2023/12/03 00:31:27;;;;;;;64.90;27.60;;;;;;;-3.24;80.82;98224.14;105261;1271;96700;-68
2023/12/03 00:33:55;;;;;;;59.00;26.10;;;;;;;-3.23;80.55;98228.11;105725;1257;96539;-68
2023/12/03 00:36:23;;;;;;;57.40;24.90;;;;;;;-3.23;80.60;98228.65;105155;1254;110011;-67
2023/12/03 00:38:51;;;;;;;66.80;30.40;;;;;;;-3.26;80.85;98238.77;105512;1257;96620;-68
2023/12/03 00:41:19;;;;;;;57.00;27.80;;;;;;;-3.24;80.64;98249.83;105028;1258;107152;-68
2023/12/03 00:43:46;;;;;;;50.90;23.00;;;;;;;-3.24;80.54;98250.33;105185;1257;97896;-67
2023/12/03 00:46:22;;;;;;;57.30;23.70;;;;;;;-3.23;80.49;98261.74;105400;1258;96603;-68
2023/12/03 00:48:50;;;;;;;54.80;23.40;;;;;;;-3.22;80.74;98263.29;105493;1254;109511;-70
2023/12/03 00:51:18;;;;;;;54.30;24.70;;;;;;;-3.22;80.73;98270.73;105358;1256;96707;-69
2023/12/03 00:53:46;;;;;;;50.40;23.50;;;;;;;-3.22;80.58;98276.11;105018;1254;107628;-68
2023/12/03 00:56:13;;;;;;;51.00;23.10;;;;;;;-3.21;80.98;98283.88;105033;1259;96580;-69
2023/12/03 00:58:41;;;;;;;53.60;22.40;;;;;;;-3.20;80.49;98288.89;105051;1259;96541;-68
2023/12/03 01:01:09;;;;;;;54.20;22.90;;;;;;;-3.21;80.75;98294.98;105719;1257;109915;-68
2023/12/03 01:03:37;;;;;;;48.20;20.60;;;;;;;-3.19;80.90;98295.28;106105;1257;96666;-69
2023/12/03 01:06:05;;;;;;;51.90;22.10;;;;;;;-3.18;80.64;98299.07;105275;1254;107703;-67
2023/12/03 01:08:33;;;;;;;50.90;22.40;;;;;;;-3.17;80.67;98304.73;105554;1257;96687;-69
2023/12/03 01:11:04;;;;;;;47.30;21.70;;;;;;;-3.18;80.48;98306.52;105501;1256;97995;-68
2023/12/03 01:13:32;;;;;;;50.50;22.20;;;;;;;-3.17;80.61;98304.75;105459;1258;109059;-68
2023/12/03 01:16:01;;;;;;;50.00;20.80;;;;;;;-3.17;80.92;98303.70;105110;1259;97949;-70
2023/12/03 01:18:28;;;;;;;52.60;21.30;;;;;;;-3.17;80.74;98310.65;106267;1255;107686;-70
2023/12/03 01:20:56;;;;;;;52.10;20.60;;;;;;;-3.17;80.68;98314.13;105208;1262;97227;-70
2023/12/03 01:23:24;;;;;;;44.50;19.80;;;;;;;-3.16;80.60;98318.27;105059;1257;97818;-70
2023/12/03 01:25:52;;;;;;;43.70;19.30;;;;;;;-3.14;81.03;98324.98;105426;1257;109984;-70
2023/12/03 01:28:20;;;;;;;42.40;18.90;;;;;;;-3.14;80.86;98324.80;105529;1258;96629;-70
2023/12/03 01:30:48;;;;;;;45.30;18.50;;;;;;;-3.14;80.76;98329.10;105440;1257;105936;-69
2023/12/03 01:33:16;;;;;;;41.80;19.70;;;;;;;-3.13;80.97;98333.08;105508;1258;97736;-69
2023/12/03 01:35:44;;;;;;;45.00;19.50;;;;;;;-3.12;80.97;98342.27;105783;1262;96525;-68
2023/12/03 01:38:12;;;;;;;48.10;20.20;;;;;;;-3.13;80.69;98344.54;107162;1257;110026;-69
2023/12/03 01:40:39;;;;;;;43.20;20.30;;;;;;;-3.12;80.73;98353.36;105063;1258;97220;-68
2023/12/03 01:43:07;;;;;;;45.40;19.30;;;;;;;-3.11;80.64;98352.98;105399;1259;107608;-69
2023/12/03 01:45:38;;;;;;;50.10;20.80;;;;;;;-3.09;80.58;98360.22;105806;1256;96518;-69
2023/12/03 01:48:06;;;;;;;52.40;22.50;;;;;;;-3.08;80.90;98364.52;105775;1258;96578;-69
2023/12/03 01:50:34;;;;;;;51.30;21.90;;;;;;;-3.09;80.81;98367.48;106180;1257;109908;-69
2023/12/03 01:53:03;;;;;;;49.70;21.20;;;;;;;-3.09;80.68;98370.27;105178;1257;96762;-69
2023/12/03 01:55:31;;;;;;;50.20;22.20;;;;;;;-3.08;80.70;98376.84;105594;1257;107711;-68
2023/12/03 01:57:59;;;;;;;52.00;22.00;;;;;;;-3.09;80.62;98382.24;105306;1260;97826;-68
2023/12/03 02:00:27;;;;;;;49.20;21.90;;;;;;;-3.09;80.81;98388.49;105211;1259;96604;-70
2023/12/03 02:02:55;;;;;;;48.40;21.10;;;;;;;-3.09;80.85;98391.80;106075;1257;110407;-69
2023/12/03 02:05:23;;;;;;;54.00;21.20;;;;;;;-3.10;80.79;98389.55;108213;1255;95486;-69
2023/12/03 02:07:51;;;;;;;50.50;22.00;;;;;;;-3.12;80.93;98386.14;108272;1258;107644;-70
2023/12/03 02:10:19;;;;;;;47.50;21.50;;;;;;;-3.13;80.73;98388.06;108364;1254;94410;-70
2023/12/03 02:12:48;;;;;;;45.40;20.00;;;;;;;-3.14;80.68;98391.55;105582;1258;96617;-69
2023/12/03 02:15:16;;;;;;;44.20;19.10;;;;;;;-3.13;80.98;98390.85;108318;1254;109908;-70
2023/12/03 02:17:45;;;;;;;42.70;17.30;;;;;;;-3.11;80.79;98393.91;105953;1258;96614;-70
2023/12/03 02:20:13;;;;;;;44.80;19.70;;;;;;;-3.11;80.79;98400.16;106022;1256;107731;-70
2023/12/03 02:22:58;;;;;;;38.50;16.80;;;;;;;-3.10;80.80;98410.01;105315;1258;97951;-70
2023/12/03 02:25:26;;;;;;;38.40;18.40;;;;;;;-3.11;80.56;98416.48;105478;1257;97970;-71
2023/12/03 02:27:54;;;;;;;42.80;19.40;;;;;;;-3.13;80.76;98422.42;105627;1259;109668;-69
2023/12/03 02:30:22;;;;;;;44.30;17.80;;;;;;;-3.14;80.88;98424.86;105409;1259;96694;-70
2023/12/03 02:32:50;;;;;;;40.30;17.40;;;;;;;-3.14;80.69;98431.77;106954;1255;106025;-70
2023/12/03 02:35:17;;;;;;;39.50;16.00;;;;;;;-3.11;80.73;98434.86;107464;1256;96487;-71
2023/12/03 02:37:45;;;;;;;36.00;15.90;;;;;;;-3.11;80.91;98436.39;105237;1258;96598;-69
2023/12/03 02:40:13;;;;;;;34.60;13.70;;;;;;;-3.09;80.81;98442.09;105109;1265;109874;-69
2023/12/03 02:42:41;;;;;;;35.20;14.60;;;;;;;-3.09;80.99;98451.77;105223;1259;96610;-69
2023/12/03 02:45:10;;;;;;;37.20;15.10;;;;;;;-3.08;80.63;98449.85;105269;1260;108060;-70
2023/12/03 02:47:37;;;;;;;33.30;14.10;;;;;;;-3.07;80.76;98459.03;105148;1259;98015;-69
2023/12/03 02:50:06;;;;;;;34.40;14.00;;;;;;;-3.05;80.56;98475.29;105446;1256;96616;-69
2023/12/03 02:52:33;;;;;;;34.80;14.00;;;;;;;-3.05;80.78;98480.12;105314;1258;109949;-70
2023/12/03 02:55:01;;;;;;;35.80;13.30;;;;;;;-3.03;80.92;98490.82;105692;1257;96620;-69
2023/12/03 02:57:29;;;;;;;33.10;14.10;;;;;;;-3.03;80.88;98494.98;105169;1259;107110;-70
2023/12/03 02:59:57;;;;;;;33.40;13.90;;;;;;;-3.02;80.79;98503.10;105222;1258;96840;-70
2023/12/03 03:02:24;;;;;;;34.00;13.60;;;;;;;-3.01;80.84;98504.30;108467;1254;94670;-71
2023/12/03 03:04:52;;;;;;;31.80;12.50;;;;;;;-3.00;81.17;98507.05;108532;1254;110220;-70
2023/12/03 03:07:20;;;;;;;37.10;13.90;;;;;;;-3.00;80.88;98520.77;108575;1254;95177;-71
2023/12/03 03:09:48;;;;;;;34.20;12.70;;;;;;;-2.99;80.74;98528.02;108514;1255;107592;-70
2023/12/03 03:12:16;;;;;;;33.10;13.80;;;;;;;-2.97;80.74;98535.95;106723;1257;96600;-70
2023/12/03 03:14:43;;;;;;;33.60;13.40;;;;;;;-2.94;80.84;98538.31;105573;1258;96504;-69
2023/12/03 03:17:12;;;;;;;35.00;14.70;;;;;;;-2.94;80.99;98540.55;105346;1273;110017;-70
2023/12/03 03:19:43;;;;;;;31.80;12.70;;;;;;;-2.94;80.81;98545.59;105492;1259;96596;-69
2023/12/03 03:22:12;;;;;;;32.80;12.50;;;;;;;-2.94;80.86;98551.48;105504;1257;107636;-69
2023/12/03 03:24:43;;;;;;;33.60;13.30;;;;;;;-2.95;80.66;98549.42;106104;1258;97951;-70
2023/12/03 03:27:11;;;;;;;30.70;13.20;;;;;;;-2.95;80.73;98548.74;105159;1259;96905;-68
2023/12/03 03:29:38;;;;;;;30.10;12.10;;;;;;;-2.95;80.91;98551.00;105271;1258;109730;-69
2023/12/03 03:32:06;;;;;;;33.30;13.40;;;;;;;-2.95;80.82;98557.77;105365;1259;96585;-69
2023/12/03 03:34:34;;;;;;;32.50;12.40;;;;;;;-2.95;80.52;98560.02;105328;1260;108174;-69
2023/12/03 03:37:02;;;;;;;31.10;12.10;;;;;;;-2.96;80.70;98567.33;105100;1258;97539;-69
2023/12/03 03:39:30;;;;;;;31.40;12.90;;;;;;;-2.98;80.53;98576.23;105454;1257;96523;-70
2023/12/03 03:41:58;;;;;;;31.10;11.50;;;;;;;-3.00;80.71;98574.70;105133;1254;109336;-70
2023/12/03 03:44:25;;;;;;;41.10;16.70;;;;;;;-3.00;80.72;98582.52;105709;1259;96648;-70
2023/12/03 03:46:53;;;;;;;40.30;16.10;;;;;;;-2.99;80.85;98587.69;105812;1258;107626;-68
2023/12/03 03:49:40;;;;;;;38.70;14.50;;;;;;;-2.98;81.11;98590.81;105305;1259;96622;-70
2023/12/03 03:52:08;;;;;;;33.60;13.10;;;;;;;-2.97;81.05;98588.88;105619;1259;96725;-69
2023/12/03 03:54:40;;;;;;;32.20;12.80;;;;;;;-2.97;80.97;98589.05;105407;1254;109570;-71
2023/12/03 03:57:08;;;;;;;47.10;20.80;;;;;;;-2.97;80.85;98594.43;105107;1256;96686;-69
2023/12/03 03:59:36;;;;;;;32.80;13.20;;;;;;;-2.97;80.81;98601.02;104937;1262;107100;-69
2023/12/03 04:02:04;;;;;;;35.20;15.20;;;;;;;-2.95;80.99;98601.83;105425;1258;96690;-71
2023/12/03 04:04:32;;;;;;;33.30;13.60;;;;;;;-2.94;80.71;98607.18;105472;1259;96594;-69
2023/12/03 04:07:00;;;;;;;27.10;11.80;;;;;;;-2.94;80.89;98606.86;105768;1256;109928;-69
2023/12/03 04:09:27;;;;;;;32.50;11.70;;;;;;;-2.95;80.97;98613.64;105590;1254;96619;-70
2023/12/03 04:11:55;;;;;;;27.90;11.60;;;;;;;-2.95;80.75;98617.80;105149;1256;107287;-70
2023/12/03 04:14:23;;;;;;;32.20;11.60;;;;;;;-2.96;80.77;98614.88;105956;1259;96671;-69
2023/12/03 04:16:51;;;;;;;30.70;11.70;;;;;;;-2.97;80.88;98620.09;105009;1261;96846;-70
2023/12/03 04:19:19;;;;;;;33.80;12.80;;;;;;;-2.98;80.97;98615.95;105815;1259;109405;-69
2023/12/03 04:21:47;;;;;;;30.80;12.50;;;;;;;-2.99;80.96;98625.72;105205;1260;96591;-69
2023/12/03 04:24:15;;;;;;;36.30;14.20;;;;;;;-2.99;80.50;98625.86;105834;1257;107844;-70
2023/12/03 04:26:43;;;;;;;33.90;13.70;;;;;;;-2.98;80.79;98630.89;105192;1259;96525;-69
2023/12/03 04:29:12;;;;;;;33.20;12.20;;;;;;;-2.98;80.76;98636.24;108509;1256;94318;-69
2023/12/03 04:31:40;;;;;;;30.70;12.40;;;;;;;-2.99;80.88;98644.42;106610;1259;109850;-69
2023/12/03 04:34:08;;;;;;;34.60;15.20;;;;;;;-2.99;80.71;98652.75;107218;1256;96689;-69
2023/12/03 04:36:36;;;;;;;32.70;14.40;;;;;;;-2.99;80.85;98656.23;106055;1256;108705;-69
2023/12/03 04:39:04;;;;;;;33.10;14.40;;;;;;;-2.98;80.91;98660.73;106631;1256;96697;-70
2023/12/03 04:41:40;;;;;;;33.30;16.10;;;;;;;-2.98;80.67;98665.75;105976;1258;96604;-70
2023/12/03 04:44:07;;;;;;;36.40;15.00;;;;;;;-2.98;80.83;98674.09;105771;1258;109791;-69
2023/12/03 04:46:39;;;;;;;33.40;14.60;;;;;;;-2.98;80.88;98681.02;105619;1257;96607;-70
2023/12/03 04:49:07;;;;;;;36.20;15.80;;;;;;;-2.98;80.64;98683.80;105352;1270;108408;-69
2023/12/03 04:51:35;;;;;;;36.00;16.00;;;;;;;-2.98;80.85;98690.38;105681;1259;96594;-70
2023/12/03 04:54:04;;;;;;;41.10;16.70;;;;;;;-2.97;80.40;98699.05;106677;1258;96599;-69
2023/12/03 04:56:32;;;;;;;38.20;16.10;;;;;;;-2.96;80.88;98707.35;105311;1258;110000;-69
2023/12/03 04:58:59;;;;;;;42.80;18.00;;;;;;;-2.95;80.73;98713.23;105713;1257;96604;-69
2023/12/03 05:01:27;;;;;;;46.70;22.20;;;;;;;-2.96;80.96;98719.83;105042;1259;107075;-69
2023/12/03 05:03:55;;;;;;;42.10;19.10;;;;;;;-2.99;80.71;98724.24;105072;1259;96607;-68
2023/12/03 05:06:23;;;;;;;44.40;18.90;;;;;;;-3.00;80.63;98729.30;105382;1259;96630;-69
2023/12/03 05:08:51;;;;;;;47.20;19.10;;;;;;;-3.02;80.92;98735.05;105054;1258;109883;-70
2023/12/03 05:11:19;;;;;;;44.30;19.00;;;;;;;-3.04;80.67;98732.69;105591;1258;97542;-69
2023/12/03 05:13:46;;;;;;;47.60;19.10;;;;;;;-3.07;80.42;98729.80;105354;1260;107316;-70
2023/12/03 05:16:14;;;;;;;45.50;19.20;;;;;;;-3.09;80.59;98734.38;105141;1255;97529;-71
2023/12/03 05:18:42;;;;;;;45.20;19.00;;;;;;;-3.10;80.47;98739.06;105681;1259;96604;-70
2023/12/03 05:21:10;;;;;;;50.70;19.80;;;;;;;-3.11;80.69;98745.67;105704;1259;110757;-70
2023/12/03 05:23:38;;;;;;;98.90;38.90;;;;;;;-3.10;80.86;98745.33;105723;1259;96971;-68
2023/12/03 05:26:06;;;;;;;73.80;32.70;;;;;;;-3.10;80.80;98749.99;105574;1258;107455;-68
2023/12/03 05:28:33;;;;;;;75.60;35.00;;;;;;;-3.09;80.79;98756.55;105582;1256;96633;-69
2023/12/03 05:31:03;;;;;;;61.70;27.60;;;;;;;-3.09;80.63;98763.86;105112;1258;97814;-70
2023/12/03 05:33:31;;;;;;;56.50;25.90;;;;;;;-3.09;80.69;98771.49;105462;1258;108885;-70
2023/12/03 05:35:59;;;;;;;79.20;30.50;;;;;;;-3.12;80.75;98775.20;105428;1260;96601;-69
2023/12/03 05:38:27;;;;;;;71.30;31.90;;;;;;;-3.12;80.75;98782.32;105079;1260;107100;-69
2023/12/03 05:40:55;;;;;;;103.00;41.10;;;;;;;-3.10;80.59;98783.30;105356;1259;96657;-69
2023/12/03 05:43:22;;;;;;;71.00;31.80;;;;;;;-3.09;80.88;98785.01;105058;1262;96695;-70
2023/12/03 05:45:50;;;;;;;66.00;27.70;;;;;;;-3.08;80.74;98781.00;105270;1256;110333;-71
2023/12/03 05:48:18;;;;;;;61.20;25.90;;;;;;;-3.09;80.80;98777.38;105547;1258;96623;-70
2023/12/03 05:50:47;;;;;;;75.20;34.00;;;;;;;-3.11;80.52;98780.38;105316;1258;108429;-70
2023/12/03 05:53:15;;;;;;;65.50;28.90;;;;;;;-3.11;80.66;98781.95;105442;1260;96610;-70
2023/12/03 05:55:42;;;;;;;61.50;26.60;;;;;;;-3.14;80.44;98790.67;105490;1258;96615;-70
2023/12/03 05:58:10;;;;;;;62.10;24.70;;;;;;;-3.14;80.77;98799.17;105511;1260;109789;-70
2023/12/03 06:00:38;;;;;;;62.80;27.80;;;;;;;-3.13;81.02;98801.91;108187;1255;95597;-69
2023/12/03 06:03:06;;;;;;;59.10;24.90;;;;;;;-3.11;80.63;98806.39;108260;1255;107659;-69
2023/12/03 06:05:33;;;;;;;63.80;26.80;;;;;;;-3.07;80.86;98811.01;105304;1258;96605;-70
2023/12/03 06:08:01;;;;;;;63.10;29.60;;;;;;;-3.05;80.65;98815.81;106200;1258;96587;-69
2023/12/03 06:10:30;;;;;;;65.30;28.40;;;;;;;-3.03;81.14;98821.30;105092;1260;110520;-69
2023/12/03 06:12:58;;;;;;;67.10;30.80;;;;;;;-3.00;80.83;98825.39;105972;1258;96634;-69
2023/12/03 06:15:26;;;;;;;65.50;29.70;;;;;;;-2.96;81.02;98830.02;105189;1258;107238;-69
2023/12/03 06:17:54;;;;;;;72.50;28.00;;;;;;;-2.94;80.87;98830.69;105503;1259;96633;-69
2023/12/03 06:20:22;;;;;;;66.80;28.20;;;;;;;-2.94;80.90;98837.10;105984;1258;96619;-69
2023/12/03 06:22:50;;;;;;;65.80;27.20;;;;;;;-2.95;80.70;98837.63;106027;1258;109452;-69
2023/12/03 06:25:18;;;;;;;72.10;27.60;;;;;;;-2.98;80.98;98838.71;107599;1258;97938;-70
2023/12/03 06:27:45;;;;;;;67.80;26.90;;;;;;;-3.00;80.82;98842.23;106309;1258;107540;-70
2023/12/03 06:30:14;;;;;;;71.50;29.20;;;;;;;-3.01;80.87;98851.80;105219;1259;96778;-71
2023/12/03 06:32:41;;;;;;;68.00;28.50;;;;;;;-2.98;81.07;98856.26;105333;1258;96636;-71
2023/12/03 06:35:11;;;;;;;66.90;29.30;;;;;;;-2.96;80.73;98858.64;105029;1256;110059;-70
2023/12/03 06:37:39;;;;;;;68.30;28.70;;;;;;;-2.96;80.92;98862.13;105398;1259;96623;-70
2023/12/03 06:40:08;;;;;;;70.10;29.90;;;;;;;-2.95;80.90;98862.10;105111;1260;107542;-71
2023/12/03 06:42:35;;;;;;;69.80;29.10;;;;;;;-2.91;81.09;98860.11;108274;1256;96315;-71
2023/12/03 06:45:04;;;;;;;64.80;29.80;;;;;;;-2.90;80.97;98858.53;106404;1257;96745;-70
2023/12/03 06:47:31;;;;;;;63.10;26.90;;;;;;;-2.92;80.74;98862.89;106872;1259;109405;-71
2023/12/03 06:49:59;;;;;;;60.80;26.80;;;;;;;-2.91;80.87;98860.79;105195;1259;97917;-69
2023/12/03 06:52:27;;;;;;;69.70;31.50;;;;;;;-2.90;81.07;98865.28;106231;1258;107266;-71
2023/12/03 06:54:55;;;;;;;64.50;28.60;;;;;;;-2.89;80.83;98866.49;106227;1259;97964;-70
2023/12/03 06:57:23;;;;;;;63.80;29.70;;;;;;;-2.88;80.75;98869.23;105003;1259;96614;-70
2023/12/03 06:59:50;;;;;;;66.20;29.00;;;;;;;-2.86;80.87;98878.75;107924;1254;109973;-71
2023/12/03 07:02:18;;;;;;;71.00;32.60;;;;;;;-2.87;80.99;98879.45;106842;1254;96629;-77
2023/12/03 07:04:47;;;;;;;74.60;35.60;;;;;;;-2.83;80.90;98885.96;106032;1258;107870;-77
2023/12/03 07:07:15;;;;;;;67.70;30.70;;;;;;;-2.77;81.23;98886.89;107546;1258;96677;-76
2023/12/03 07:09:43;;;;;;;73.10;33.70;;;;;;;-2.72;80.83;98893.90;106173;1258;96594;-76
2023/12/03 07:12:11;;;;;;;74.00;35.60;;;;;;;-2.67;81.10;98892.73;105222;1263;109907;-77
2023/12/03 07:14:39;;;;;;;85.70;38.50;;;;;;;-2.64;81.24;98896.14;105448;1258;96612;-76
2023/12/03 07:17:06;;;;;;;82.80;34.60;;;;;;;-2.63;80.77;98897.52;106661;1258;107270;-77
2023/12/03 07:19:35;;;;;;;71.60;31.90;;;;;;;-2.63;80.96;98899.95;108270;1258;94475;-75
2023/12/03 07:22:03;;;;;;;75.10;33.10;;;;;;;-2.60;81.15;98910.99;106089;1259;96625;-76
2023/12/03 07:24:31;;;;;;;75.80;33.20;;;;;;;-2.56;81.26;98913.85;105133;1262;109916;-77
2023/12/03 07:27:01;;;;;;;74.00;31.60;;;;;;;-2.52;80.97;98917.95;105205;1267;97813;-77
2023/12/03 07:29:31;;;;;;;71.40;32.90;;;;;;;-2.53;81.14;98921.96;105461;1260;107715;-77
2023/12/03 07:31:59;;;;;;;82.40;36.40;;;;;;;-2.52;80.99;98929.23;106418;1257;96625;-76
2023/12/03 07:34:28;;;;;;;85.20;38.10;;;;;;;-2.50;80.89;98931.45;106017;1259;96620;-77
2023/12/03 07:36:56;;;;;;;79.90;37.40;;;;;;;-2.50;81.07;98930.58;105472;1259;109696;-76
2023/12/03 07:39:24;;;;;;;78.90;35.60;;;;;;;-2.48;81.27;98934.02;107250;1256;96668;-76
2023/12/03 07:41:55;;;;;;;105.80;43.10;;;;;;;-2.47;80.97;98935.21;105439;1266;107199;-76
2023/12/03 07:44:23;;;;;;;95.60;45.50;;;;;;;-2.47;80.83;98946.50;106599;1259;96613;-76
2023/12/03 07:46:53;;;;;;;79.80;39.40;;;;;;;-2.48;81.00;98946.52;105106;1260;96587;-76
2023/12/03 07:49:20;;;;;;;103.00;43.80;;;;;;;-2.49;81.09;98941.85;107272;1256;109964;-77
2023/12/03 07:51:48;;;;;;;74.10;34.80;;;;;;;-2.51;80.99;98939.11;105860;1258;96603;-78
2023/12/03 07:54:17;;;;;;;66.90;32.70;;;;;;;-2.51;81.08;98941.55;105934;1268;107261;-76
2023/12/03 07:56:45;;;;;;;68.10;33.00;;;;;;;-2.52;80.78;98947.11;105352;1267;96655;-77
2023/12/03 07:59:13;;;;;;;70.90;33.10;;;;;;;-2.53;80.93;98954.25;108081;1257;94631;-75
2023/12/03 08:01:41;;;;;;;68.40;33.30;;;;;;;-2.54;80.87;98960.71;105686;1255;109817;-76
2023/12/03 08:04:09;;;;;;;76.50;39.30;;;;;;;-2.52;81.17;98960.84;106104;1254;97951;-76
2023/12/03 08:06:37;;;;;;;76.20;36.90;;;;;;;-2.50;80.93;98961.85;105666;1258;107171;-76
2023/12/03 08:09:05;;;;;;;86.50;44.50;;;;;;;-2.48;81.10;98967.70;108273;1257;94584;-76
2023/12/03 08:11:33;;;;;;;82.60;43.00;;;;;;;-2.48;80.99;98973.59;106948;1255;96578;-76
2023/12/03 08:14:02;;;;;;;84.00;43.80;;;;;;;-2.48;80.92;98974.82;106680;1257;110583;-76
2023/12/03 08:16:30;;;;;;;66.90;36.40;;;;;;;-2.48;80.81;98978.64;105422;1262;96589;-76
2023/12/03 08:19:00;;;;;;;69.80;35.60;;;;;;;-2.44;81.08;98985.31;107018;1259;107599;-78
2023/12/03 08:21:32;;;;;;;67.20;36.40;;;;;;;-2.40;81.05;98989.24;105827;1267;96603;-77
2023/12/03 08:24:01;;;;;;;65.10;37.60;;;;;;;-2.37;80.64;98990.73;108250;1254;95070;-77
2023/12/03 08:26:30;;;;;;;65.10;34.10;;;;;;;-2.33;81.06;98993.95;107123;1255;109879;-77
2023/12/03 08:29:00;;;;;;;60.40;31.40;;;;;;;-2.29;81.03;98990.76;106437;1257;96696;-77
2023/12/03 08:31:28;;;;;;;61.90;32.90;;;;;;;-2.27;80.89;98989.32;105011;1260;109238;-80
2023/12/03 08:34:00;;;;;;;57.10;29.20;;;;;;;-2.24;81.00;98988.39;104974;1261;96635;-76
2023/12/03 08:36:31;;;;;;;54.70;29.50;;;;;;;-2.22;80.84;98989.89;108062;1257;94595;-74
2023/12/03 08:39:01;;;;;;;50.00;28.70;;;;;;;-2.22;80.86;98996.66;108302;1254;109933;-75
2023/12/03 08:41:29;;;;;;;73.10;32.90;;;;;;;-2.20;80.85;99007.91;108314;1257;95786;-76
2023/12/03 08:43:57;;;;;;;49.70;25.50;;;;;;;-2.22;80.77;99012.48;106083;1259;105994;-77
2023/12/03 08:46:25;;;;;;;50.60;26.00;;;;;;;-2.21;80.73;99019.42;107536;1255;96620;-80
2023/12/03 08:48:53;;;;;;;46.10;23.60;;;;;;;-2.17;80.99;99022.64;108260;1257;94338;-81
2023/12/03 08:51:21;;;;;;;46.70;23.40;;;;;;;-2.15;81.02;99022.05;108363;1254;109863;-82
2023/12/03 08:53:51;;;;;;;45.90;22.90;;;;;;;-2.18;80.55;99026.13;105868;1258;96636;-77
2023/12/03 08:56:19;;;;;;;46.30;23.10;;;;;;;-2.20;80.49;99027.38;108372;1254;107580;-75
2023/12/03 08:58:48;;;;;;;52.80;26.50;;;;;;;-2.23;80.57;99030.92;106061;1258;97236;-79
2023/12/03 09:01:16;;;;;;;41.30;22.30;;;;;;;-2.21;80.71;99030.36;106778;1254;96536;-81
2023/12/03 09:03:44;;;;;;;44.30;23.20;;;;;;;-2.24;80.56;99033.37;106061;1260;109947;-76
2023/12/03 09:06:13;;;;;;;42.60;22.30;;;;;;;-2.28;80.79;99037.79;106838;1257;96542;-74
2023/12/03 09:08:41;;;;;;;43.20;23.90;;;;;;;-2.31;80.63;99038.39;106043;1259;107617;-74
2023/12/03 09:11:10;;;;;;;46.20;24.40;;;;;;;-2.32;80.62;99039.80;105609;1259;97539;-75
2023/12/03 09:13:38;;;;;;;40.50;22.00;;;;;;;-2.30;80.87;99044.45;105295;1255;96614;-75
2023/12/03 09:16:06;;;;;;;42.80;21.80;;;;;;;-2.32;80.73;99051.42;105273;1255;109968;-75
2023/12/03 09:18:38;;;;;;;41.10;22.50;;;;;;;-2.31;80.63;99047.41;106247;1258;96691;-75
2023/12/03 09:21:11;;;;;;;40.50;20.50;;;;;;;-2.34;80.53;99050.77;106679;1255;107600;-75
2023/12/03 09:23:39;;;;;;;38.10;20.70;;;;;;;-2.36;80.52;99047.67;105466;1260;96699;-75
2023/12/03 09:26:08;;;;;;;40.30;21.60;;;;;;;-2.37;80.61;99051.36;105659;1255;96610;-73
2023/12/03 09:28:36;;;;;;;39.20;20.20;;;;;;;-2.38;80.69;99057.79;105405;1260;108443;-73
2023/12/03 09:31:04;;;;;;;37.50;21.10;;;;;;;-2.36;80.65;99065.23;105730;1254;96602;-75
2023/12/03 09:33:31;;;;;;;43.00;22.50;;;;;;;-2.31;80.93;99068.77;106439;1254;108186;-76
2023/12/03 09:35:59;;;;;;;41.80;23.70;;;;;;;-2.29;80.48;99070.83;106720;1254;96614;-75
2023/12/03 09:38:27;;;;;;;42.90;22.40;;;;;;;-2.25;80.75;99071.61;105351;1268;97134;-77
2023/12/03 09:40:56;;;;;;;42.40;22.50;;;;;;;-2.22;80.78;99084.21;106060;1254;109986;-75
2023/12/03 09:43:29;;;;;;;42.40;24.00;;;;;;;-2.22;80.60;99084.21;105506;1264;96593;-74
2023/12/03 09:46:00;;;;;;;38.00;19.90;;;;;;;-2.21;80.46;99084.39;107257;1254;107697;-77
2023/12/03 09:48:30;;;;;;;42.20;21.50;;;;;;;-2.20;80.65;99088.52;105065;1260;97547;-80
2023/12/03 09:51:02;;;;;;;43.90;24.30;;;;;;;-2.18;80.47;99091.61;105751;1259;96692;-76
2023/12/03 09:53:33;;;;;;;42.00;21.40;;;;;;;-2.19;80.41;99094.23;105516;1259;108815;-74
2023/12/03 09:56:03;;;;;;;42.50;23.60;;;;;;;-2.16;80.42;99098.88;105717;1254;97570;-73
2023/12/03 09:58:31;;;;;;;45.40;23.80;;;;;;;-2.13;80.56;99101.42;106439;1254;106688;-75
2023/12/03 10:01:00;;;;;;;47.10;23.40;;;;;;;-2.14;80.18;99101.44;105712;1259;96715;-74
2023/12/03 10:03:29;;;;;;;38.80;19.60;;;;;;;-2.12;80.56;99090.47;105539;1254;96518;-79
2023/12/03 10:05:57;;;;;;;45.50;25.60;;;;;;;-2.09;80.59;99094.23;105181;1255;109914;-75
2023/12/03 10:08:31;;;;;;;63.00;31.70;;;;;;;-2.09;80.44;99091.77;105186;1260;96606;-77
2023/12/03 10:11:02;;;;;;;42.50;23.80;;;;;;;-2.06;80.82;99091.03;105918;1254;107501;-74
2023/12/03 10:13:31;;;;;;;49.90;24.60;;;;;;;-2.07;80.32;99087.23;105749;1254;96573;-74
2023/12/03 10:15:59;;;;;;;45.70;23.70;;;;;;;-2.12;80.38;99089.23;106141;1254;96636;-75
2023/12/03 10:18:27;;;;;;;52.90;27.90;;;;;;;-2.11;80.61;99086.95;105784;1254;110012;-74
2023/12/03 10:21:06;;;;;;;48.30;28.10;;;;;;;-2.05;80.61;99087.54;105910;1254;96599;-74
2023/12/03 10:23:37;;;;;;;45.20;23.40;;;;;;;-1.99;80.59;99087.73;105293;1271;106857;-74
2023/12/03 10:26:12;;;;;;;48.20;23.70;;;;;;;-1.96;80.36;99089.41;106645;1257;96675;-76
2023/12/03 10:28:41;;;;;;;48.30;25.60;;;;;;;-1.94;80.53;99087.83;108342;1254;94514;-74
2023/12/03 10:31:14;;;;;;;47.70;25.30;;;;;;;-1.94;80.63;99090.44;107139;1254;110137;-74
2023/12/03 10:33:46;;;;;;;52.10;27.30;;;;;;;-1.96;80.33;99092.91;106386;1254;96603;-75
2023/12/03 10:36:15;;;;;;;47.10;25.50;;;;;;;-1.95;80.59;99096.02;105534;1270;107771;-76
2023/12/03 10:38:43;;;;;;;54.20;28.90;;;;;;;-1.90;80.43;99096.95;108364;1254;94638;-74
2023/12/03 10:41:13;;;;;;;48.20;26.50;;;;;;;-1.89;80.43;99096.94;106446;1256;97977;-74
2023/12/03 10:43:42;;;;;;;49.50;25.90;;;;;;;-1.86;80.54;99101.90;106307;1254;109716;-75
2023/12/03 10:46:12;;;;;;;42.60;24.10;;;;;;;-1.81;80.52;99101.26;106358;1254;96567;-74
2023/12/03 10:48:40;;;;;;;47.80;25.50;;;;;;;-1.73;80.62;99107.20;105705;1254;107551;-74
2023/12/03 10:51:10;;;;;;;48.40;25.50;;;;;;;-1.69;80.46;99108.16;107279;1257;96603;-74
2023/12/03 10:53:39;;;;;;;50.80;26.50;;;;;;;-1.67;80.38;99109.15;105512;1260;96678;-75
2023/12/03 10:56:08;;;;;;;54.60;29.10;;;;;;;-1.64;80.37;99117.09;106441;1254;109445;-74
2023/12/03 10:58:38;;;;;;;49.00;27.10;;;;;;;-1.62;80.38;99119.98;107683;1256;94839;-73
2023/12/03 11:04:02;;;;;;;50.20;27.50;;;;;;;-1.59;80.38;99121.49;102956;1289;635860;-74
2023/12/03 11:06:33;;;;;;;44.10;23.40;;;;;;;-1.62;80.25;99122.95;105088;1267;94227;-75
2023/12/03 11:09:03;;;;;;;47.30;24.90;;;;;;;-1.65;80.38;99123.88;107334;1267;94280;-73
2023/12/03 11:11:33;;;;;;;48.50;26.10;;;;;;;-1.67;80.28;99128.64;104949;1270;107190;-73
2023/12/03 11:14:04;;;;;;;190.70;108.20;;;;;;;-1.67;80.44;99129.50;104620;1270;94790;-75
2023/12/03 11:16:45;;;;;;;109.30;71.10;;;;;;;-1.68;80.40;99126.55;107248;1264;147099;-75